createdAt,value
2018-12-25T00:02:23.851Z,97170.45
2018-12-25T00:05:13.398Z,97168.69
2018-12-25T00:08:03.121Z,97172.97
2018-12-25T00:10:52.811Z,97177.23
2018-12-25T00:13:42.532Z,97175.98
2018-12-25T00:16:32.533Z,97183.80
2018-12-25T00:19:21.995Z,97184.64
2018-12-25T00:22:11.698Z,97191.49
2018-12-25T00:25:01.689Z,97197.96
2018-12-25T00:27:51.451Z,97192.95
2018-12-25T00:30:40.910Z,97193.08
2018-12-25T00:33:30.758Z,97200.50
2018-12-25T00:36:20.908Z,97201.69
2018-12-25T00:39:10.649Z,97209.20
2018-12-25T00:42:01.489Z,97211.41
2018-12-25T00:44:51.193Z,97207.55
2018-12-25T00:47:41.178Z,97206.09
2018-12-25T00:50:30.997Z,97209.20
2018-12-25T00:53:20.457Z,97216.61
2018-12-25T00:56:10.516Z,97215.33
2018-12-25T00:58:59.990Z,97214.31
2018-12-25T01:01:50.476Z,97218.33
2018-12-25T01:04:40.307Z,97208.70
2018-12-25T01:07:30.248Z,97209.03
2018-12-25T01:10:20.527Z,97215.27
2018-12-25T01:13:09.979Z,97214.34
2018-12-25T01:15:59.730Z,97214.34
2018-12-25T01:18:49.503Z,97215.00
2018-12-25T01:21:39.196Z,97212.79
2018-12-25T01:24:28.934Z,97211.23
2018-12-25T01:27:19.770Z,97202.70
2018-12-25T01:30:09.443Z,97203.26
2018-12-25T01:33:00.617Z,97192.62
2018-12-25T01:35:50.616Z,97190.58
2018-12-25T01:38:40.351Z,97182.88
2018-12-25T01:41:29.852Z,97182.61
2018-12-25T01:44:19.808Z,97176.58
2018-12-25T01:47:09.328Z,97164.39
2018-12-25T01:49:59.054Z,97166.70
2018-12-25T01:52:48.537Z,97165.32
2018-12-25T01:55:38.807Z,97160.09
2018-12-25T01:58:28.262Z,97145.24
2018-12-25T02:01:17.990Z,97144.13
2018-12-25T02:04:08.152Z,97142.12
2018-12-25T02:06:57.330Z,97138.27
2018-12-25T02:09:46.816Z,97127.92
2018-12-25T02:12:36.571Z,97125.33
2018-12-25T02:15:26.375Z,97120.84
2018-12-25T02:18:16.470Z,97123.78
2018-12-25T02:21:06.252Z,97127.94
2018-12-25T02:23:56.452Z,97128.57
2018-12-25T02:26:46.419Z,97138.39
2018-12-25T02:29:36.163Z,97134.72
2018-12-25T02:32:25.914Z,97145.34
2018-12-25T02:35:15.894Z,97159.66
2018-12-25T02:38:05.358Z,97169.66
2018-12-25T02:40:55.100Z,97181.84
2018-12-25T02:43:44.643Z,97190.63
2018-12-25T02:46:34.402Z,97192.77
2018-12-25T02:49:24.145Z,97189.75
2018-12-25T02:52:14.120Z,97192.30
2018-12-25T02:55:04.157Z,97191.57
2018-12-25T02:57:53.614Z,97186.25
2018-12-25T03:00:43.348Z,97180.00
2018-12-25T03:03:33.364Z,97172.48
2018-12-25T03:06:23.406Z,97168.25
2018-12-25T03:09:13.139Z,97159.20
2018-12-25T03:12:02.948Z,97167.14
2018-12-25T03:14:52.655Z,97170.28
2018-12-25T03:17:42.139Z,97167.36
2018-12-25T03:20:32.115Z,97175.23
2018-12-25T03:23:21.874Z,97165.06
2018-12-25T03:26:11.621Z,97163.14
2018-12-25T03:29:02.146Z,97158.75
2018-12-25T03:31:52.134Z,97165.80
2018-12-25T03:34:41.827Z,97176.16
2018-12-25T03:37:32.017Z,97175.03
2018-12-25T03:40:21.576Z,97177.89
2018-12-25T03:43:11.101Z,97172.59
2018-12-25T03:46:00.566Z,97183.13
2018-12-25T03:48:51.348Z,97175.63
2018-12-25T03:51:40.910Z,97173.59
2018-12-25T03:54:30.379Z,97179.73
2018-12-25T03:57:20.072Z,97179.83
2018-12-25T04:00:10.981Z,97180.30
2018-12-25T04:03:00.519Z,97182.05
2018-12-25T04:05:50.314Z,97184.98
2018-12-25T04:08:40.461Z,97176.61
2018-12-25T04:11:29.936Z,97176.26
2018-12-25T04:14:20.752Z,97168.09
2018-12-25T04:17:10.262Z,97165.97
2018-12-25T04:20:00.386Z,97167.90
2018-12-25T04:22:50.596Z,97173.19
2018-12-25T04:25:40.336Z,97173.67
2018-12-25T04:28:30.782Z,97177.52
2018-12-25T04:31:20.787Z,97174.05
2018-12-25T04:34:10.813Z,97182.91
2018-12-25T04:37:00.596Z,97187.30
2018-12-25T04:39:51.380Z,97192.25
2018-12-25T04:42:41.575Z,97196.28
2018-12-25T04:45:31.570Z,97194.73
2018-12-25T04:48:21.513Z,97197.69
2018-12-25T04:51:11.513Z,97196.95
2018-12-25T04:54:00.953Z,97200.68
2018-12-25T04:56:50.428Z,97190.97
2018-12-25T04:59:39.959Z,97188.43
2018-12-25T05:02:29.666Z,97187.27
2018-12-25T05:05:20.125Z,97185.23
2018-12-25T05:08:10.351Z,97192.47
2018-12-25T05:11:00.702Z,97187.55
2018-12-25T05:13:50.427Z,97194.58
2018-12-25T05:16:40.249Z,97194.50
2018-12-25T05:19:30.227Z,97196.77
2018-12-25T05:22:19.938Z,97197.34
2018-12-25T05:25:09.916Z,97190.91
2018-12-25T05:27:59.988Z,97186.06
2018-12-25T05:30:49.655Z,97191.39
2018-12-25T05:33:39.727Z,97191.47
2018-12-25T05:36:50.000Z,97197.70
2018-12-25T05:39:40.204Z,97193.58
2018-12-25T05:42:29.984Z,97197.95
2018-12-25T05:45:19.718Z,97199.79
2018-12-25T05:48:09.943Z,97203.02
2018-12-25T05:51:00.168Z,97207.61
2018-12-25T05:53:49.896Z,97205.47
2018-12-25T05:56:40.240Z,97213.51
2018-12-25T05:59:29.995Z,97208.95
2018-12-25T06:02:19.791Z,97208.13
2018-12-25T06:05:10.343Z,97209.57
2018-12-25T06:08:00.621Z,97213.60
2018-12-25T06:10:50.596Z,97219.83
2018-12-25T06:13:40.343Z,97216.02
2018-12-25T06:16:30.751Z,97210.48
2018-12-25T06:19:20.667Z,97209.30
2018-12-25T06:22:10.789Z,97216.53
2018-12-25T06:25:00.749Z,97215.34
2018-12-25T06:27:50.558Z,97200.77
2018-12-25T06:30:40.761Z,97204.89
2018-12-25T06:33:30.551Z,97192.62
2018-12-25T06:36:20.346Z,97197.84
2018-12-25T06:39:10.054Z,97193.20
2018-12-25T06:41:59.808Z,97189.69
2018-12-25T06:44:49.518Z,97189.05
2018-12-25T06:47:39.263Z,97201.05
2018-12-25T06:50:29.317Z,97201.23
2018-12-25T06:53:19.037Z,97206.36
2018-12-25T06:56:09.630Z,97203.58
2018-12-25T06:58:59.103Z,97203.06
2018-12-25T07:01:48.825Z,97190.42
2018-12-25T07:04:38.830Z,97193.05
2018-12-25T07:07:28.782Z,97188.37
2018-12-25T07:10:18.769Z,97188.37
2018-12-25T07:13:08.625Z,97193.41
2018-12-25T07:15:58.092Z,97194.74
2018-12-25T07:18:47.588Z,97202.56
2018-12-25T07:21:37.848Z,97191.30
2018-12-25T07:24:27.337Z,97183.79
2018-12-25T07:27:17.285Z,97172.25
2018-12-25T07:30:07.519Z,97166.66
2018-12-25T07:32:57.724Z,97171.16
2018-12-25T07:35:47.754Z,97166.66
2018-12-25T07:38:37.478Z,97171.45
2018-12-25T07:41:28.080Z,97176.95
2018-12-25T07:44:17.576Z,97184.38
2018-12-25T07:47:07.049Z,97188.41
2018-12-25T07:49:57.059Z,97186.33
2018-12-25T07:52:47.761Z,97173.87
2018-12-25T07:55:37.481Z,97172.30
2018-12-25T07:58:28.119Z,97170.29
2018-12-25T08:01:17.592Z,97165.99
2018-12-25T08:04:07.359Z,97169.29
2018-12-25T08:06:56.842Z,97174.34
2018-12-25T08:09:46.315Z,97163.68
2018-12-25T08:12:36.055Z,97177.73
2018-12-25T08:15:25.774Z,97185.71
2018-12-25T08:18:15.887Z,97181.66
2018-12-25T08:21:05.839Z,97179.66
2018-12-25T08:23:55.841Z,97187.06
2018-12-25T08:26:45.684Z,97192.20
2018-12-25T08:29:35.410Z,97184.22
2018-12-25T08:32:25.381Z,97193.59
2018-12-25T08:35:15.288Z,97199.71
2018-12-25T08:38:05.612Z,97198.73
2018-12-25T08:40:55.543Z,97195.98
2018-12-25T08:43:45.271Z,97210.20
2018-12-25T08:46:35.213Z,97216.03
2018-12-25T08:49:25.057Z,97231.00
2018-12-25T08:52:14.787Z,97226.31
2018-12-25T08:55:04.810Z,97233.77
2018-12-25T08:57:55.420Z,97227.80
2018-12-25T09:00:44.911Z,97223.56
2018-12-25T09:03:35.547Z,97233.67
2018-12-25T09:06:25.786Z,97228.23
2018-12-25T09:09:15.778Z,97228.16
2018-12-25T09:12:05.335Z,97234.30
2018-12-25T09:14:56.726Z,97245.04
2018-12-25T09:17:46.431Z,97240.81
2018-12-25T09:20:35.973Z,97236.31
2018-12-25T09:23:26.704Z,97237.78
2018-12-25T09:26:17.004Z,97241.27
2018-12-25T09:29:06.750Z,97233.56
2018-12-25T09:31:57.227Z,97231.92
2018-12-25T09:34:48.086Z,97227.53
2018-12-25T09:37:38.501Z,97220.34
2018-12-25T09:40:28.523Z,97219.23
2018-12-25T09:43:19.106Z,97220.27
2018-12-25T09:46:08.857Z,97216.41
2018-12-25T09:48:59.200Z,97224.48
2018-12-25T09:51:54.494Z,97218.27
2018-12-25T09:54:41.080Z,97218.06
2018-12-25T09:57:31.568Z,97224.38
2018-12-25T10:00:21.431Z,97233.02
2018-12-25T10:03:11.016Z,97228.80
2018-12-25T10:06:01.128Z,97228.14
2018-12-25T10:08:50.848Z,97233.28
2018-12-25T10:11:44.509Z,97239.80
2018-12-25T10:14:32.588Z,97235.78
2018-12-25T10:17:22.128Z,97230.09
2018-12-25T10:20:12.058Z,97230.09
2018-12-25T10:23:01.874Z,97231.64
2018-12-25T10:25:51.629Z,97242.94
2018-12-25T10:28:41.740Z,97244.86
2018-12-25T10:31:31.202Z,97249.99
2018-12-25T10:34:21.099Z,97238.20
2018-12-25T10:37:10.587Z,97230.09
2018-12-25T10:40:00.332Z,97222.27
2018-12-25T10:42:49.802Z,97219.98
2018-12-25T10:45:40.084Z,97211.67
2018-12-25T10:48:29.670Z,97193.04
2018-12-25T10:51:19.199Z,97188.97
2018-12-25T10:54:08.907Z,97201.87
2018-12-25T10:56:58.783Z,97188.60
2018-12-25T10:59:48.586Z,97179.55
2018-12-25T11:02:38.341Z,97171.25
2018-12-25T11:05:28.278Z,97170.70
2018-12-25T11:08:17.988Z,97155.52
2018-12-25T11:11:07.988Z,97158.91
2018-12-25T11:13:57.699Z,97153.80
2018-12-25T11:16:47.639Z,97144.95
2018-12-25T11:19:37.618Z,97149.63
2018-12-25T11:22:27.131Z,97148.84
2018-12-25T11:25:16.594Z,97148.80
2018-12-25T11:28:06.327Z,97157.07
2018-12-25T11:30:56.295Z,97148.08
2018-12-25T11:33:45.764Z,97152.09
2018-12-25T11:36:47.818Z,97152.09
2018-12-25T11:39:37.545Z,97152.09
2018-12-25T11:42:27.262Z,97139.23
2018-12-25T11:45:16.724Z,97139.23
2018-12-25T11:48:06.188Z,97146.93
2018-12-25T11:50:55.913Z,97146.73
2018-12-25T11:53:46.404Z,97159.38
2018-12-25T11:56:36.359Z,97170.48
2018-12-25T11:59:26.306Z,97179.19
2018-12-25T12:02:17.124Z,97179.84
2018-12-25T12:05:07.492Z,97174.23
2018-12-25T12:07:57.422Z,97171.53
2018-12-25T12:10:47.200Z,97172.36
2018-12-25T12:13:37.159Z,97176.25
2018-12-25T12:16:26.885Z,97191.61
2018-12-25T12:19:16.674Z,97192.33
2018-12-25T12:22:06.661Z,97193.38
2018-12-25T12:24:55.485Z,97195.69
2018-12-25T12:27:44.979Z,97195.39
2018-12-25T12:30:34.700Z,97195.14
2018-12-25T12:33:24.171Z,97203.26
2018-12-25T12:36:14.119Z,97212.16
2018-12-25T12:42:33.069Z,97218.65
2018-12-25T12:45:22.785Z,97243.17
2018-12-25T12:48:12.531Z,97252.38
2018-12-25T12:51:02.385Z,97255.20
2018-12-25T12:53:52.414Z,97247.66
2018-12-25T12:56:41.889Z,97258.05
2018-12-25T12:59:31.724Z,97259.33
2018-12-25T13:02:21.431Z,97253.46
2018-12-25T13:05:11.645Z,97254.69
2018-12-25T13:08:02.245Z,97250.10
2018-12-25T13:10:51.987Z,97255.70
2018-12-25T13:13:41.704Z,97260.35
2018-12-25T13:16:50.388Z,97262.06
2018-12-25T13:19:40.136Z,97263.02
2018-12-25T13:22:29.604Z,97264.44
2018-12-25T13:25:19.669Z,97266.38
2018-12-25T13:28:09.994Z,97266.45
2018-12-25T13:31:00.228Z,97269.81
2018-12-25T13:33:49.963Z,97265.86
2018-12-25T13:36:39.459Z,97267.11
2018-12-25T13:39:50.111Z,97275.64
2018-12-25T13:42:39.657Z,97273.70
2018-12-25T13:45:29.908Z,97273.70
2018-12-25T13:48:19.668Z,97262.08
2018-12-25T13:51:09.385Z,97266.22
2018-12-25T13:53:59.122Z,97270.47
2018-12-25T13:56:48.644Z,97263.83
2018-12-25T13:59:38.427Z,97254.29
2018-12-25T14:02:28.477Z,97261.08
2018-12-25T14:05:18.283Z,97265.67
2018-12-25T14:08:08.089Z,97260.55
2018-12-25T14:10:57.832Z,97250.53
2018-12-25T14:13:47.630Z,97252.62
2018-12-25T14:16:37.846Z,97240.14
2018-12-25T14:19:27.861Z,97242.34
2018-12-25T14:22:17.410Z,97250.05
2018-12-25T14:25:07.648Z,97247.61
2018-12-25T14:28:15.937Z,97254.56
2018-12-25T14:31:05.718Z,97258.80
2018-12-25T14:33:55.525Z,97265.84
2018-12-25T14:40:17.575Z,97257.33
2018-12-25T14:46:23.947Z,97258.71
2018-12-25T14:49:14.005Z,97258.59
2018-12-25T14:52:04.616Z,97259.17
2018-12-25T14:54:56.230Z,97263.85
2018-12-25T14:57:45.878Z,97266.61
2018-12-25T15:00:36.797Z,97274.47
2018-12-25T15:03:47.200Z,97275.75
2018-12-25T15:06:37.382Z,97288.22
2018-12-25T15:09:28.517Z,97285.20
2018-12-25T15:12:18.638Z,97282.27
2018-12-25T15:15:08.975Z,97288.66
2018-12-25T15:21:10.372Z,97295.17
2018-12-25T15:24:00.513Z,97302.60
2018-12-25T15:26:50.710Z,97304.03
2018-12-25T15:29:41.189Z,97314.84
2018-12-25T15:32:30.792Z,97318.57
2018-12-25T15:35:20.482Z,97318.37
2018-12-25T15:38:10.774Z,97319.38
2018-12-25T15:41:00.586Z,97326.66
2018-12-25T15:43:50.360Z,97331.05
2018-12-25T15:46:40.547Z,97330.64
2018-12-25T15:49:30.294Z,97326.96
2018-12-25T15:52:19.959Z,97332.61
2018-12-25T15:55:10.292Z,97332.84
2018-12-25T15:58:00.458Z,97323.50
2018-12-25T16:00:50.933Z,97331.54
2018-12-25T16:03:40.986Z,97330.00
2018-12-25T16:06:34.388Z,97336.01
2018-12-25T16:09:22.695Z,97331.48
2018-12-25T16:12:12.982Z,97333.34
2018-12-25T16:15:02.739Z,97329.16
2018-12-25T16:17:52.561Z,97332.19
2018-12-25T16:20:42.040Z,97332.93
2018-12-25T16:23:32.544Z,97339.09
2018-12-25T16:26:22.808Z,97336.61
2018-12-25T16:29:12.783Z,97333.75
2018-12-25T16:32:22.059Z,97320.62
2018-12-25T16:35:11.775Z,97320.62
2018-12-25T16:38:01.989Z,97329.09
2018-12-25T16:40:51.715Z,97330.73
2018-12-25T16:43:41.165Z,97330.73
2018-12-25T16:46:30.735Z,97338.55
2018-12-25T16:49:20.217Z,97343.67
2018-12-25T16:52:09.765Z,97331.28
2018-12-25T16:54:59.509Z,97340.24
2018-12-25T16:57:49.251Z,97336.33
2018-12-25T17:00:39.459Z,97345.53
2018-12-25T17:03:29.661Z,97343.58
2018-12-25T17:06:20.433Z,97336.45
2018-12-25T17:09:29.587Z,97334.11
2018-12-25T17:12:19.559Z,97334.11
2018-12-25T17:15:09.336Z,97338.70
2018-12-25T17:17:59.036Z,97338.70
2018-12-25T17:20:48.819Z,97332.77
2018-12-25T17:24:02.141Z,97329.77
2018-12-25T17:26:49.041Z,97329.77
2018-12-25T17:29:39.308Z,97312.60
2018-12-25T17:32:29.035Z,97314.62
2018-12-25T17:35:38.405Z,97300.33
2018-12-25T17:38:28.880Z,97291.69
2018-12-25T17:41:18.363Z,97291.69
2018-12-25T17:44:27.290Z,97296.03
2018-12-25T17:47:17.058Z,97296.03
2018-12-25T17:50:06.980Z,97299.27
2018-12-25T17:52:56.714Z,97295.98
2018-12-25T17:55:46.769Z,97294.61
2018-12-25T17:58:55.720Z,97293.50
2018-12-25T18:01:45.481Z,97293.50
2018-12-25T18:04:54.144Z,97299.20
2018-12-25T18:07:44.248Z,97299.20
2018-12-25T18:10:34.308Z,97299.10
2018-12-25T18:13:24.328Z,97289.58
2018-12-25T18:16:13.809Z,97314.39
2018-12-25T18:19:03.837Z,97297.83
2018-12-25T18:21:53.819Z,97294.75
2018-12-25T18:25:02.563Z,97289.19
2018-12-25T18:27:52.547Z,97289.19
2018-12-25T18:30:42.563Z,97291.77
2018-12-25T18:33:32.328Z,97282.28
2018-12-25T18:36:22.402Z,97282.28
2018-12-25T18:39:12.228Z,97280.10
2018-12-25T18:42:02.975Z,97270.23
2018-12-25T18:44:52.788Z,97275.34
2018-12-25T18:48:01.746Z,97254.91
2018-12-25T18:50:51.479Z,97254.91
2018-12-25T18:54:01.232Z,97262.02
2018-12-25T18:56:51.319Z,97267.73
2018-12-25T18:59:40.813Z,97267.73
2018-12-25T19:02:49.765Z,97264.27
2018-12-25T19:05:39.215Z,97264.27
2018-12-25T19:08:47.910Z,97249.75
2018-12-25T19:11:37.669Z,97257.06
2018-12-25T19:14:50.074Z,97252.15
2018-12-25T19:17:39.810Z,97252.15
2018-12-25T19:20:29.630Z,97252.22
2018-12-25T19:23:19.920Z,97242.53
2018-12-25T19:29:58.000Z,97242.05
2018-12-25T19:32:59.832Z,97237.02
2018-12-25T19:35:49.843Z,97234.69
2018-12-25T19:38:39.855Z,97234.69
2018-12-25T19:41:29.761Z,97233.11
2018-12-25T19:44:19.408Z,97231.16
2018-12-25T19:47:09.487Z,97231.16
2018-12-25T19:50:18.277Z,97209.44
2018-12-25T19:53:09.113Z,97209.44
2018-12-25T19:55:58.982Z,97210.90
2018-12-25T19:59:07.771Z,97216.38
2018-12-25T20:02:16.782Z,97207.06
2018-12-25T20:05:44.592Z,97207.06
2018-12-25T20:09:12.406Z,97203.20
2018-12-25T20:12:37.617Z,97203.20
2018-12-25T20:16:05.400Z,97205.61
2018-12-25T20:19:34.169Z,97191.56
2018-12-25T20:22:48.146Z,97192.84
2018-12-25T20:26:03.618Z,97206.69
2018-12-25T20:29:31.451Z,97207.04
2018-12-25T20:32:32.497Z,97216.95
2018-12-25T20:36:00.344Z,97216.95
2018-12-25T20:39:28.161Z,97231.76
2018-12-25T20:46:52.933Z,97229.05
2018-12-25T20:50:20.739Z,97225.85
2018-12-25T20:53:48.579Z,97225.85
2018-12-25T20:57:16.395Z,97240.23
2018-12-25T21:00:44.247Z,97240.23
2018-12-25T21:04:12.074Z,97238.58
2018-12-25T21:07:40.164Z,97238.58
2018-12-25T21:11:07.986Z,97235.64
2018-12-25T21:14:35.799Z,97223.62
2018-12-25T21:18:05.853Z,97236.00
2018-12-25T21:21:41.578Z,97236.00
2018-12-25T21:25:10.125Z,97224.96
2018-12-25T21:28:18.143Z,97221.73
2018-12-25T21:34:25.922Z,97203.84
2018-12-25T21:37:18.462Z,97203.84
2018-12-25T21:40:09.007Z,97198.59
2018-12-25T21:42:59.586Z,97198.08
2018-12-25T21:45:49.703Z,97192.69
2018-12-25T21:48:39.352Z,97200.42
2018-12-25T21:51:31.083Z,97200.42
2018-12-25T21:54:39.851Z,97192.22
2018-12-25T21:57:50.013Z,97192.22
2018-12-25T22:00:39.957Z,97204.86
2018-12-25T22:03:49.395Z,97204.86
2018-12-25T22:06:58.085Z,97183.08
2018-12-25T22:10:07.746Z,97173.45
2018-12-25T22:13:16.792Z,97186.08
2018-12-25T22:16:07.069Z,97186.08
2018-12-25T22:18:57.229Z,97183.90
2018-12-25T22:22:07.185Z,97188.33
2018-12-25T22:24:58.191Z,97193.23
2018-12-25T22:28:06.875Z,97197.06
2018-12-25T22:30:57.695Z,97197.06
2018-12-25T22:34:07.468Z,97185.20
2018-12-25T22:37:00.366Z,97188.02
2018-12-25T22:39:50.399Z,97179.91
2018-12-25T22:42:40.451Z,97167.41
2018-12-25T22:45:30.616Z,97165.16
2018-12-25T22:48:38.282Z,97165.16
2018-12-25T22:51:47.045Z,97170.66
2018-12-25T22:54:36.677Z,97167.80
2018-12-25T22:57:26.782Z,97167.80
2018-12-25T23:00:35.619Z,97174.34
2018-12-25T23:03:27.514Z,97174.34
2018-12-25T23:06:17.232Z,97177.41
2018-12-25T23:09:07.689Z,97171.25
2018-12-25T23:12:16.744Z,97175.84
2018-12-25T23:15:15.549Z,97175.84
2018-12-25T23:18:05.489Z,97170.09
2018-12-25T23:20:55.733Z,97175.82
2018-12-25T23:23:57.838Z,97182.86
2018-12-25T23:26:37.364Z,97176.70
2018-12-25T23:29:27.251Z,97181.80
2018-12-25T23:32:16.890Z,97166.06
2018-12-25T23:35:06.773Z,97175.06
2018-12-25T23:37:56.522Z,97173.64
2018-12-25T23:40:46.138Z,97177.30
2018-12-25T23:43:35.968Z,97180.67
2018-12-25T23:46:25.786Z,97170.93
2018-12-25T23:49:15.756Z,97177.38
2018-12-25T23:52:05.296Z,97179.61
2018-12-25T23:54:55.160Z,97178.27
2018-12-25T23:57:45.220Z,97179.09
